createdAt,value
2019-03-31T00:01:14.568Z,23.95
2019-03-31T00:03:43.073Z,23.95
2019-03-31T00:06:11.547Z,23.93
2019-03-31T00:08:40.135Z,23.96
2019-03-31T00:11:08.557Z,23.94
2019-03-31T00:13:36.980Z,23.93
2019-03-31T00:16:05.444Z,23.93
2019-03-31T00:18:33.901Z,23.93
2019-03-31T00:21:02.377Z,23.89
2019-03-31T00:23:30.816Z,23.89
2019-03-31T00:25:59.242Z,23.93
2019-03-31T00:28:27.708Z,23.92
2019-03-31T00:30:56.620Z,23.93
2019-03-31T00:33:25.142Z,23.91
2019-03-31T00:35:53.612Z,23.89
2019-03-31T00:38:22.049Z,23.89
2019-03-31T00:40:50.467Z,23.87
2019-03-31T00:43:18.891Z,23.88
2019-03-31T00:45:47.388Z,23.86
2019-03-31T00:48:15.836Z,23.83
2019-03-31T00:50:44.265Z,23.85
2019-03-31T00:53:12.748Z,23.86
2019-03-31T00:55:41.223Z,23.84
2019-03-31T00:58:09.645Z,23.81
2019-03-31T01:00:56.182Z,23.80
2019-03-31T01:03:25.109Z,23.78
2019-03-31T01:05:53.550Z,23.79
2019-03-31T01:08:21.993Z,23.77
2019-03-31T01:10:50.508Z,23.76
2019-03-31T01:13:18.990Z,23.78
2019-03-31T01:15:47.399Z,23.75
2019-03-31T01:18:16.101Z,23.75
2019-03-31T01:20:45.028Z,23.76
2019-03-31T01:23:13.503Z,23.76
2019-03-31T01:25:41.957Z,23.76
2019-03-31T01:28:10.501Z,23.76
2019-03-31T01:30:38.947Z,23.76
2019-03-31T01:33:07.398Z,23.75
2019-03-31T01:35:35.856Z,23.74
2019-03-31T01:38:04.282Z,23.73
2019-03-31T01:40:32.739Z,23.73
2019-03-31T01:43:01.139Z,23.73
2019-03-31T01:45:29.556Z,23.71
2019-03-31T01:47:58.009Z,23.73
2019-03-31T01:50:27.203Z,23.72
2019-03-31T01:52:55.669Z,23.73
2019-03-31T01:55:24.085Z,23.71
2019-03-31T01:57:52.509Z,23.72
2019-03-31T02:00:46.028Z,23.71
2019-03-31T02:03:14.443Z,23.73
2019-03-31T02:05:42.908Z,23.71
2019-03-31T02:08:11.386Z,23.69
2019-03-31T02:10:39.804Z,23.68
2019-03-31T02:13:08.293Z,23.70
2019-03-31T02:15:36.727Z,23.69
2019-03-31T02:18:05.330Z,23.67
2019-03-31T02:20:33.760Z,23.68
2019-03-31T02:23:02.201Z,23.71
2019-03-31T02:25:30.670Z,23.68
2019-03-31T02:27:59.093Z,23.66
2019-03-31T02:30:27.545Z,23.68
2019-03-31T02:32:56.000Z,23.66
2019-03-31T02:35:24.410Z,23.64
2019-03-31T02:37:52.833Z,23.60
2019-03-31T02:40:21.307Z,23.60
2019-03-31T02:42:49.765Z,23.61
2019-03-31T02:45:18.210Z,23.63
2019-03-31T02:47:46.645Z,23.60
2019-03-31T02:50:17.247Z,23.58
2019-03-31T02:52:45.711Z,23.57
2019-03-31T02:55:14.123Z,23.57
2019-03-31T02:57:42.550Z,23.57
2019-03-31T03:00:10.999Z,23.59
2019-03-31T03:02:42.250Z,23.58
2019-03-31T03:05:19.612Z,23.57
2019-03-31T03:07:39.678Z,23.57
2019-03-31T03:10:08.083Z,23.57
2019-03-31T03:12:36.536Z,23.56
2019-03-31T03:15:04.984Z,23.56
2019-03-31T03:17:33.384Z,23.53
2019-03-31T03:20:01.827Z,23.53
2019-03-31T03:22:30.234Z,23.53
2019-03-31T03:24:58.743Z,23.53
2019-03-31T03:27:27.205Z,23.52
2019-03-31T03:29:55.654Z,23.53
2019-03-31T03:32:24.121Z,23.52
2019-03-31T03:34:52.532Z,23.50
2019-03-31T03:37:21.019Z,23.51
2019-03-31T03:39:49.594Z,23.49
2019-03-31T03:42:18.072Z,23.48
2019-03-31T03:44:46.519Z,23.48
2019-03-31T03:47:15.033Z,23.46
2019-03-31T03:49:43.461Z,23.48
2019-03-31T03:52:11.994Z,23.46
2019-03-31T03:54:40.487Z,23.47
2019-03-31T03:57:09.001Z,23.46
2019-03-31T03:59:37.428Z,23.43
2019-03-31T04:02:05.843Z,23.43
2019-03-31T04:04:34.275Z,23.41
2019-03-31T04:07:02.949Z,23.40
2019-03-31T04:09:31.425Z,23.41
2019-03-31T04:11:59.861Z,23.41
2019-03-31T04:14:28.307Z,23.39
2019-03-31T04:16:56.739Z,23.38
2019-03-31T04:19:25.184Z,23.38
2019-03-31T04:21:53.612Z,23.40
2019-03-31T04:24:22.061Z,23.38
2019-03-31T04:26:50.495Z,23.37
2019-03-31T04:29:18.919Z,22.98
2019-03-31T04:31:47.368Z,23.36
2019-03-31T04:34:15.822Z,23.36
2019-03-31T04:36:44.262Z,23.36
2019-03-31T04:39:12.668Z,23.34
2019-03-31T04:41:41.100Z,23.34
2019-03-31T04:44:09.625Z,23.31
2019-03-31T04:46:38.108Z,23.32
2019-03-31T04:49:06.620Z,23.31
2019-03-31T04:51:35.128Z,23.29
2019-03-31T04:54:03.578Z,23.29
2019-03-31T04:56:32.016Z,23.30
2019-03-31T04:59:00.454Z,23.28
2019-03-31T05:01:28.844Z,23.28
2019-03-31T05:04:04.722Z,23.28
2019-03-31T05:06:27.484Z,23.28
2019-03-31T05:08:55.949Z,23.27
2019-03-31T05:11:24.376Z,23.25
2019-03-31T05:13:52.855Z,23.26
2019-03-31T05:16:21.391Z,23.24
2019-03-31T05:18:49.840Z,23.24
2019-03-31T05:21:18.252Z,23.21
2019-03-31T05:23:46.659Z,23.20
2019-03-31T05:26:15.066Z,23.20
2019-03-31T05:28:44.253Z,23.21
2019-03-31T05:31:12.845Z,23.20
2019-03-31T05:33:41.279Z,23.21
2019-03-31T05:36:09.696Z,23.21
2019-03-31T05:38:38.137Z,23.22
2019-03-31T05:41:06.567Z,23.22
2019-03-31T05:43:35.061Z,23.21
2019-03-31T05:46:03.523Z,23.20
2019-03-31T05:48:31.932Z,23.20
2019-03-31T05:51:00.421Z,23.20
2019-03-31T05:53:28.833Z,23.20
2019-03-31T05:55:57.296Z,23.20
2019-03-31T05:58:25.749Z,23.20
2019-03-31T06:00:54.298Z,23.18
2019-03-31T06:03:23.150Z,23.21
2019-03-31T06:05:51.664Z,23.22
2019-03-31T06:08:20.109Z,23.22
2019-03-31T06:10:48.664Z,23.21
2019-03-31T06:13:17.257Z,23.23
2019-03-31T06:15:45.684Z,23.22
2019-03-31T06:18:14.107Z,23.23
2019-03-31T06:20:42.804Z,23.24
2019-03-31T06:23:11.336Z,23.25
2019-03-31T06:25:39.797Z,23.29
2019-03-31T06:28:08.287Z,23.29
2019-03-31T06:30:36.714Z,23.28
2019-03-31T06:33:05.166Z,23.29
2019-03-31T06:35:33.645Z,23.30
2019-03-31T06:38:02.096Z,23.31
2019-03-31T06:40:30.654Z,23.33
2019-03-31T06:43:00.015Z,23.31
2019-03-31T06:45:28.571Z,23.40
2019-03-31T06:47:57.112Z,23.40
2019-03-31T06:50:25.762Z,23.42
2019-03-31T06:52:54.224Z,23.46
2019-03-31T06:55:22.749Z,23.39
2019-03-31T06:57:51.345Z,23.44
2019-03-31T07:00:19.839Z,23.47
2019-03-31T07:02:48.353Z,23.48
2019-03-31T07:05:16.827Z,23.49
2019-03-31T07:07:45.304Z,23.49
2019-03-31T07:10:13.814Z,23.53
2019-03-31T07:12:42.311Z,23.54
2019-03-31T07:15:10.840Z,23.57
2019-03-31T07:17:39.273Z,23.57
2019-03-31T07:20:08.349Z,23.57
2019-03-31T07:22:36.812Z,23.62
2019-03-31T07:25:06.989Z,23.62
2019-03-31T07:27:35.584Z,23.62
2019-03-31T07:30:07.104Z,23.69
2019-03-31T07:32:34.372Z,23.68
2019-03-31T07:35:03.043Z,23.66
2019-03-31T07:37:31.441Z,23.69
2019-03-31T07:40:00.194Z,23.70
2019-03-31T07:42:29.203Z,23.74
2019-03-31T07:44:57.751Z,23.77
2019-03-31T07:47:27.156Z,23.80
2019-03-31T07:49:55.773Z,23.84
2019-03-31T07:52:24.446Z,23.83
2019-03-31T07:54:54.377Z,23.78
2019-03-31T07:57:22.974Z,23.81
2019-03-31T07:59:51.462Z,23.83
2019-03-31T08:02:19.871Z,23.85
2019-03-31T08:04:48.284Z,23.86
2019-03-31T08:07:16.741Z,23.91
2019-03-31T08:09:45.292Z,23.91
2019-03-31T08:12:13.770Z,23.92
2019-03-31T08:14:42.205Z,23.94
2019-03-31T08:17:10.690Z,23.99
2019-03-31T08:19:39.144Z,24.07
2019-03-31T08:22:07.596Z,24.15
2019-03-31T08:24:54.134Z,24.18
2019-03-31T08:27:22.667Z,24.09
2019-03-31T08:30:00.102Z,24.10
2019-03-31T08:32:21.305Z,24.14
2019-03-31T08:34:49.720Z,24.12
2019-03-31T08:37:18.119Z,24.10
2019-03-31T08:39:46.522Z,24.21
2019-03-31T08:42:14.923Z,24.22
2019-03-31T08:44:45.056Z,24.24
2019-03-31T08:47:13.519Z,24.25
2019-03-31T08:49:41.944Z,24.20
2019-03-31T08:52:10.372Z,24.23
2019-03-31T08:54:38.772Z,24.30
2019-03-31T08:57:07.163Z,24.33
2019-03-31T08:59:35.568Z,24.32
2019-03-31T09:02:21.825Z,24.41
2019-03-31T09:04:50.252Z,24.37
2019-03-31T09:07:18.713Z,24.44
2019-03-31T09:09:47.216Z,24.39
2019-03-31T09:12:15.628Z,24.44
2019-03-31T09:14:44.019Z,24.44
2019-03-31T09:17:12.469Z,24.47
2019-03-31T09:19:40.878Z,24.53
2019-03-31T09:22:09.305Z,24.48
2019-03-31T09:24:37.715Z,24.51
2019-03-31T09:27:06.169Z,24.48
2019-03-31T09:29:34.661Z,24.49
2019-03-31T09:32:03.129Z,24.53
2019-03-31T09:34:31.544Z,24.57
2019-03-31T09:37:00.045Z,24.59
2019-03-31T09:39:28.449Z,24.65
2019-03-31T09:41:56.956Z,24.65
2019-03-31T09:44:25.364Z,24.69
2019-03-31T09:46:53.857Z,24.70
2019-03-31T09:49:22.355Z,24.68
2019-03-31T09:51:50.740Z,24.74
2019-03-31T09:54:19.188Z,24.75
2019-03-31T09:56:47.599Z,24.73
2019-03-31T09:59:16.036Z,24.76
2019-03-31T10:01:44.422Z,24.76
2019-03-31T10:04:12.823Z,24.78
2019-03-31T10:06:41.267Z,24.85
2019-03-31T10:09:09.667Z,24.87
2019-03-31T10:11:38.092Z,24.84
2019-03-31T10:14:06.553Z,24.83
2019-03-31T10:16:35.000Z,24.89
2019-03-31T10:19:03.383Z,24.86
2019-03-31T10:21:31.905Z,24.89
2019-03-31T10:24:00.282Z,24.91
2019-03-31T10:26:32.183Z,24.89
2019-03-31T10:28:58.755Z,24.92
2019-03-31T10:31:27.164Z,24.91
2019-03-31T10:33:55.567Z,24.90
2019-03-31T10:36:23.972Z,24.88
2019-03-31T10:38:52.446Z,24.88
2019-03-31T10:41:20.844Z,24.90
2019-03-31T10:43:49.239Z,24.88
2019-03-31T10:46:17.728Z,24.90
2019-03-31T10:48:46.226Z,24.93
2019-03-31T10:51:14.653Z,24.90
2019-03-31T10:53:43.044Z,24.90
2019-03-31T10:56:11.464Z,24.90
2019-03-31T10:58:39.868Z,24.92
2019-03-31T11:01:08.293Z,24.94
2019-03-31T11:03:36.873Z,24.97
2019-03-31T11:06:05.304Z,24.97
2019-03-31T11:08:33.735Z,24.99
2019-03-31T11:11:02.152Z,24.99
2019-03-31T11:13:30.585Z,24.95
2019-03-31T11:15:58.986Z,24.99
2019-03-31T11:18:27.431Z,25.00
2019-03-31T11:20:57.132Z,24.98
2019-03-31T11:23:27.501Z,24.99
2019-03-31T11:25:55.892Z,24.99
2019-03-31T11:28:24.282Z,24.96
2019-03-31T11:30:52.691Z,24.97
2019-03-31T11:33:21.192Z,24.94
2019-03-31T11:35:49.599Z,24.91
2019-03-31T11:38:18.000Z,24.88
2019-03-31T11:40:46.411Z,24.83
2019-03-31T11:43:14.812Z,24.83
2019-03-31T11:45:43.226Z,24.84
2019-03-31T11:48:11.626Z,24.80
2019-03-31T11:50:40.133Z,24.81
2019-03-31T11:53:08.570Z,24.96
2019-03-31T11:55:36.972Z,25.00
2019-03-31T11:58:05.382Z,25.00
2019-03-31T12:00:36.112Z,25.05
2019-03-31T12:03:04.512Z,25.09
2019-03-31T12:05:32.943Z,25.11
2019-03-31T12:08:01.348Z,25.14
2019-03-31T12:10:29.748Z,25.13
2019-03-31T12:12:58.147Z,25.14
2019-03-31T12:15:26.548Z,25.20
2019-03-31T12:17:54.985Z,25.25
2019-03-31T12:20:23.482Z,25.22
2019-03-31T12:22:51.889Z,25.22
2019-03-31T12:25:20.303Z,25.20
2019-03-31T12:27:48.706Z,25.18
2019-03-31T12:30:18.683Z,25.27
2019-03-31T12:32:47.093Z,25.20
2019-03-31T12:35:15.548Z,25.22
2019-03-31T12:37:43.984Z,25.24
2019-03-31T12:40:15.872Z,25.17
2019-03-31T12:42:44.285Z,25.11
2019-03-31T12:45:12.685Z,25.16
2019-03-31T12:47:41.075Z,25.16
2019-03-31T12:50:09.484Z,25.22
2019-03-31T12:52:46.466Z,25.18
2019-03-31T12:55:07.956Z,25.23
2019-03-31T12:57:36.391Z,25.19
2019-03-31T13:00:04.917Z,25.18
2019-03-31T13:02:33.320Z,25.19
2019-03-31T13:05:01.753Z,25.20
2019-03-31T13:07:30.139Z,25.22
2019-03-31T13:09:58.565Z,25.24
2019-03-31T13:12:27.047Z,25.24
2019-03-31T13:14:55.442Z,25.26
2019-03-31T13:17:23.851Z,25.24
2019-03-31T13:20:11.225Z,25.23
2019-03-31T13:22:39.635Z,25.22
2019-03-31T13:25:08.048Z,25.28
2019-03-31T13:27:36.482Z,25.33
2019-03-31T13:30:05.100Z,25.50
2019-03-31T13:35:20.929Z,25.47
2019-03-31T13:37:49.383Z,25.33
2019-03-31T13:42:51.528Z,25.46
2019-03-31T13:45:19.952Z,25.58
2019-03-31T13:50:35.780Z,25.59
2019-03-31T13:53:04.213Z,25.64
2019-03-31T13:55:32.649Z,25.67
2019-03-31T13:58:02.906Z,25.65
2019-03-31T14:00:33.976Z,25.62
2019-03-31T14:03:02.393Z,25.66
2019-03-31T14:05:30.842Z,25.64
2019-03-31T14:07:59.311Z,25.69
2019-03-31T14:10:27.756Z,25.61
2019-03-31T14:15:31.553Z,25.57
2019-03-31T14:18:00.054Z,25.59
2019-03-31T14:20:28.595Z,25.58
2019-03-31T14:22:57.040Z,25.60
2019-03-31T14:25:25.574Z,25.58
2019-03-31T14:27:54.005Z,25.60
2019-03-31T14:30:22.491Z,25.61
2019-03-31T14:32:50.968Z,25.61
2019-03-31T14:35:19.434Z,25.59
2019-03-31T14:37:47.958Z,25.60
2019-03-31T14:40:35.355Z,25.56
2019-03-31T14:43:03.796Z,25.64
2019-03-31T14:45:32.940Z,25.61
2019-03-31T14:48:01.698Z,25.66
2019-03-31T14:50:48.992Z,25.61
2019-03-31T14:53:17.495Z,25.68
2019-03-31T14:55:45.990Z,25.63
2019-03-31T14:58:14.507Z,25.67
2019-03-31T15:01:01.810Z,25.63
2019-03-31T15:03:30.224Z,25.60
2019-03-31T15:05:58.728Z,25.58
2019-03-31T15:08:27.225Z,25.47
2019-03-31T15:10:55.706Z,25.47
2019-03-31T15:13:42.915Z,25.49
2019-03-31T15:16:30.238Z,25.62
2019-03-31T15:21:46.144Z,25.70
2019-03-31T15:24:14.560Z,25.65
2019-03-31T15:26:43.036Z,25.72
2019-03-31T15:31:45.472Z,25.72
2019-03-31T15:34:13.914Z,25.75
2019-03-31T15:36:42.328Z,25.76
2019-03-31T15:39:10.752Z,25.75
2019-03-31T15:41:57.969Z,25.72
2019-03-31T15:44:26.403Z,25.70
2019-03-31T15:47:13.613Z,25.71
2019-03-31T15:49:42.134Z,25.70
2019-03-31T15:52:10.573Z,25.70
2019-03-31T15:54:39.073Z,25.67
2019-03-31T15:57:07.465Z,25.69
2019-03-31T15:59:35.886Z,25.68
2019-03-31T16:02:04.301Z,25.66
2019-03-31T16:04:32.749Z,25.68
2019-03-31T16:07:01.152Z,25.66
2019-03-31T16:09:29.527Z,25.66
2019-03-31T16:11:57.628Z,25.61
2019-03-31T16:14:25.761Z,25.60
2019-03-31T16:16:53.979Z,25.63
2019-03-31T16:19:41.225Z,25.60
2019-03-31T16:22:09.401Z,25.61
2019-03-31T16:24:40.275Z,25.60
2019-03-31T16:27:08.408Z,25.58
2019-03-31T16:29:36.590Z,25.56
2019-03-31T16:32:04.748Z,25.50
2019-03-31T16:34:32.876Z,25.47
2019-03-31T16:37:01.032Z,25.50
2019-03-31T16:39:37.520Z,25.45
2019-03-31T16:41:59.000Z,25.43
2019-03-31T16:44:27.119Z,25.47
2019-03-31T16:46:55.388Z,25.46
2019-03-31T16:49:23.531Z,25.47
2019-03-31T16:52:10.748Z,25.46
2019-03-31T16:54:38.889Z,25.48
2019-03-31T16:57:07.033Z,25.46
2019-03-31T16:59:54.073Z,25.45
2019-03-31T17:02:22.309Z,25.39
2019-03-31T17:04:50.455Z,25.40
2019-03-31T17:07:18.611Z,25.40
2019-03-31T17:09:51.647Z,25.39
2019-03-31T17:12:16.649Z,25.42
2019-03-31T17:14:44.769Z,25.40
2019-03-31T17:17:12.903Z,25.38
2019-03-31T17:19:41.104Z,25.36
2019-03-31T17:22:09.259Z,25.33
2019-03-31T17:24:37.479Z,25.32
2019-03-31T17:27:05.599Z,25.30
2019-03-31T17:29:33.742Z,25.30
2019-03-31T17:32:01.898Z,25.28
2019-03-31T17:34:30.029Z,25.26
2019-03-31T17:37:17.232Z,25.26
2019-03-31T17:39:45.384Z,25.27
2019-03-31T17:42:13.535Z,25.25
2019-03-31T17:44:41.665Z,25.25
2019-03-31T17:47:28.726Z,25.26
2019-03-31T17:49:56.871Z,25.20
2019-03-31T17:52:25.048Z,25.22
2019-03-31T17:54:53.173Z,25.20
2019-03-31T17:57:21.408Z,25.19
2019-03-31T17:59:49.562Z,25.20
2019-03-31T18:02:36.793Z,25.20
2019-03-31T18:05:05.729Z,25.17
2019-03-31T18:07:33.873Z,25.14
2019-03-31T18:10:02.009Z,25.13
2019-03-31T18:12:30.209Z,25.10
2019-03-31T18:14:58.359Z,25.11
2019-03-31T18:17:26.566Z,25.14
2019-03-31T18:19:54.743Z,25.12
2019-03-31T18:22:22.902Z,25.12
2019-03-31T18:25:10.398Z,25.12
2019-03-31T18:27:57.468Z,25.11
2019-03-31T18:30:25.592Z,25.09
2019-03-31T18:32:53.777Z,25.08
2019-03-31T18:35:21.934Z,25.09
2019-03-31T18:37:50.047Z,25.07
2019-03-31T18:40:37.288Z,25.03
2019-03-31T18:45:52.672Z,24.94
2019-03-31T18:48:20.795Z,24.94
2019-03-31T18:50:49.036Z,24.92
2019-03-31T18:53:29.901Z,24.96
2019-03-31T18:56:17.017Z,24.92
2019-03-31T18:59:04.029Z,24.89
2019-03-31T19:01:51.109Z,24.89
2019-03-31T19:04:38.201Z,24.90
2019-03-31T19:07:25.229Z,24.91
2019-03-31T19:10:24.038Z,24.95
2019-03-31T19:13:07.747Z,24.99
2019-03-31T19:15:53.531Z,24.99
2019-03-31T19:18:43.826Z,24.96
2019-03-31T19:21:35.241Z,25.00
2019-03-31T19:24:11.339Z,25.00
2019-03-31T19:26:57.073Z,24.53
2019-03-31T19:29:44.123Z,24.95
2019-03-31T19:32:46.385Z,24.98
2019-03-31T19:35:28.470Z,24.93
2019-03-31T19:38:18.379Z,24.92
2019-03-31T19:41:13.121Z,24.96
2019-03-31T19:44:03.332Z,24.94
2019-03-31T19:46:42.026Z,24.93
2019-03-31T19:49:47.575Z,24.98
2019-03-31T19:52:34.688Z,24.96
2019-03-31T19:55:16.835Z,24.94
2019-03-31T19:58:09.758Z,24.92
2019-03-31T20:01:15.004Z,24.89
2019-03-31T20:03:59.402Z,24.92
2019-03-31T20:06:44.516Z,24.92
2019-03-31T20:09:31.688Z,24.92
2019-03-31T20:12:15.942Z,24.91
2019-03-31T20:15:01.668Z,24.88
2019-03-31T20:18:00.990Z,24.87
2019-03-31T20:20:48.094Z,24.85
2019-03-31T20:23:26.214Z,24.86
2019-03-31T20:26:16.134Z,24.86
2019-03-31T20:29:01.855Z,24.83
2019-03-31T20:31:47.756Z,24.84
2019-03-31T20:34:26.891Z,24.82
2019-03-31T20:37:14.180Z,24.83
2019-03-31T20:40:00.406Z,24.80
2019-03-31T20:42:55.660Z,24.36
2019-03-31T20:45:23.810Z,24.82
2019-03-31T20:47:51.942Z,24.77
2019-03-31T20:50:20.224Z,24.78
2019-03-31T20:52:48.389Z,24.77
2019-03-31T20:55:17.069Z,24.78
2019-03-31T20:57:45.206Z,24.79
2019-03-31T21:00:13.385Z,24.75
2019-03-31T21:02:41.625Z,24.73
2019-03-31T21:05:09.786Z,24.73
2019-03-31T21:07:37.944Z,24.68
2019-03-31T21:10:06.418Z,24.71
2019-03-31T21:12:34.667Z,24.69
2019-03-31T21:15:02.877Z,24.66
2019-03-31T21:17:31.043Z,24.69
2019-03-31T21:19:59.270Z,24.70
2019-03-31T21:22:27.564Z,24.70
2019-03-31T21:24:55.846Z,24.68
2019-03-31T21:27:24.044Z,24.68
2019-03-31T21:29:52.169Z,24.65
2019-03-31T21:32:20.467Z,24.66
2019-03-31T21:34:48.584Z,24.62
2019-03-31T21:37:16.781Z,24.63
2019-03-31T21:39:44.907Z,24.61
2019-03-31T21:42:13.165Z,24.58
2019-03-31T21:44:41.334Z,24.57
2019-03-31T21:47:09.485Z,24.58
2019-03-31T21:49:37.651Z,24.55
2019-03-31T21:52:05.795Z,24.55
2019-03-31T21:54:33.955Z,24.54
2019-03-31T21:57:02.440Z,24.55
2019-03-31T21:59:33.386Z,24.52
2019-03-31T22:02:00.389Z,24.52
2019-03-31T22:04:28.571Z,24.51
2019-03-31T22:06:56.773Z,24.52
2019-03-31T22:09:24.957Z,24.50
2019-03-31T22:11:53.159Z,24.47
2019-03-31T22:14:21.290Z,24.45
2019-03-31T22:16:49.465Z,24.41
2019-03-31T22:19:17.584Z,24.40
2019-03-31T22:21:45.772Z,24.38
2019-03-31T22:24:13.890Z,24.37
2019-03-31T22:26:42.051Z,24.39
2019-03-31T22:29:10.232Z,24.39
2019-03-31T22:31:38.398Z,24.36
2019-03-31T22:34:06.533Z,24.37
2019-03-31T22:36:34.725Z,24.32
2019-03-31T22:39:04.093Z,24.34
2019-03-31T22:41:32.267Z,24.31
2019-03-31T22:44:00.416Z,24.32
2019-03-31T22:46:28.579Z,24.30
2019-03-31T22:48:56.732Z,24.28
2019-03-31T22:51:24.890Z,24.29
2019-03-31T22:53:53.060Z,24.26
2019-03-31T22:56:21.182Z,24.24
2019-03-31T22:58:49.369Z,24.27
2019-03-31T23:01:17.512Z,24.27
2019-03-31T23:03:45.664Z,24.26
2019-03-31T23:06:13.802Z,24.27
2019-03-31T23:08:41.956Z,24.24
2019-03-31T23:11:10.197Z,24.24
2019-03-31T23:13:38.332Z,24.25
2019-03-31T23:16:06.490Z,24.24
2019-03-31T23:18:34.647Z,24.24
2019-03-31T23:21:02.784Z,24.20
2019-03-31T23:23:30.915Z,24.22
2019-03-31T23:25:59.118Z,24.18
2019-03-31T23:28:27.259Z,24.21
2019-03-31T23:30:55.452Z,24.18
2019-03-31T23:33:23.587Z,24.15
2019-03-31T23:35:51.844Z,24.18
2019-03-31T23:38:19.985Z,24.19
2019-03-31T23:40:48.130Z,24.14
2019-03-31T23:43:16.268Z,24.20
2019-03-31T23:45:44.409Z,24.16
2019-03-31T23:48:12.556Z,24.16
2019-03-31T23:50:40.737Z,24.16
2019-03-31T23:53:08.896Z,24.14
2019-03-31T23:55:37.042Z,24.12
2019-03-31T23:58:05.195Z,24.12
